Decoded Metar for RCSS (TAIPEI in TAIWAN) (IATA:TSA) | Meteo·Mobile Aviation Weather
aviador You're here:

RCSS Decoded Metar

TAIPEI in TAIWAN
Report Time2018-08-17 14:00:00
UTC Time2018-08-17 14:42:40
Flight Rules vfr VFR
Wind330° at 02 kt
W.Decomp.*RWY 28: 1.2 kt HW 1.6 kt RCW
W.Rank330° ranks 18
Current wind is below 330° avg. (3.6)
Visibility9999 m
Phenomena:N/A
Clouds:Few 018 Hf
Scattered 025 Hf
Broken 050 Hf
Expected CloudBase > 400 ft AGL from Temp-Dew spread
Ceiling5,000 ft
Temp28°C (ISA +13)
Dew Point27°C (94% RH)
Heat Index34.5°C
QNH1001 hPa
Density Alt2,392 ft
Elevation20 ft
Report Wrong Elevation
Raw Report
RCSS 171400Z 33002KT 9999 FEW018 SCT025 BKN050 28/27 Q1001 NOSIG
RMK A2958=

Extra information for RCSS:More info

Metar Taf Metar & Taf Last 4 Metars F.Rules Stats Wind Profile Meteogram Temp Stats Airport Information Weather charts Add Link Nearby VenuesMetar ALERT Operation Metar Decoded Social comments